sensor_id;sensor_type;location;lat;lon;timestamp;temperature;humidity
6954;DHT22;3516;47.980;8.808;2023-05-16T03:59:52;8.80;99.90
6954;DHT22;3516;47.980;8.808;2023-05-16T04:02:19;8.80;99.90
6954;DHT22;3516;47.980;8.808;2023-05-16T04:04:46;8.80;99.90
6954;DHT22;3516;47.980;8.808;2023-05-16T04:07:13;8.80;99.90
6954;DHT22;3516;47.980;8.808;2023-05-16T04:09:40;8.80;99.90
6954;DHT22;3516;47.980;8.808;2023-05-16T04:12:07;8.90;99.90
6954;DHT22;3516;47.980;8.808;2023-05-16T04:14:33;8.90;99.90
6954;DHT22;3516;47.980;8.808;2023-05-16T04:17:02;8.90;99.90
6954;DHT22;3516;47.980;8.808;2023-05-16T04:19:28;9.00;99.90
6954;DHT22;3516;47.980;8.808;2023-05-16T04:21:55;9.00;99.90
6954;DHT22;3516;47.980;8.808;2023-05-16T04:24:22;9.00;99.90
6954;DHT22;3516;47.980;8.808;2023-05-16T04:26:51;9.00;99.90
6954;DHT22;3516;47.980;8.808;2023-05-16T04:29:17;9.00;99.90
6954;DHT22;3516;47.980;8.808;2023-05-16T04:31:44;9.10;99.90
6954;DHT22;3516;47.980;8.808;2023-05-16T04:34:12;9.10;99.90
6954;DHT22;3516;47.980;8.808;2023-05-16T04:36:39;9.20;99.90
6954;DHT22;3516;47.980;8.808;2023-05-16T04:39:07;9.20;99.90
6954;DHT22;3516;47.980;8.808;2023-05-16T04:41:33;9.20;99.90
6954;DHT22;3516;47.980;8.808;2023-05-16T04:44:00;9.30;99.90
6954;DHT22;3516;47.980;8.808;2023-05-16T04:46:28;9.40;99.90
6954;DHT22;3516;47.980;8.808;2023-05-16T04:48:55;9.40;99.90
6954;DHT22;3516;47.980;8.808;2023-05-16T04:51:23;9.50;99.90
6954;DHT22;3516;47.980;8.808;2023-05-16T04:53:50;9.50;99.90
6954;DHT22;3516;47.980;8.808;2023-05-16T04:56:17;9.50;99.90
6954;DHT22;3516;47.980;8.808;2023-05-16T04:58:44;9.60;99.90
6954;DHT22;3516;47.980;8.808;2023-05-16T05:01:11;9.60;99.90
6954;DHT22;3516;47.980;8.808;2023-05-16T05:03:38;9.60;99.90
6954;DHT22;3516;47.980;8.808;2023-05-16T05:06:05;9.70;99.90
6954;DHT22;3516;47.980;8.808;2023-05-16T05:08:33;9.70;99.90
6954;DHT22;3516;47.980;8.808;2023-05-16T05:10:59;9.70;99.90
6954;DHT22;3516;47.980;8.808;2023-05-16T05:13:26;9.70;99.90
6954;DHT22;3516;47.980;8.808;2023-05-16T05:15:53;9.80;99.90
6954;DHT22;3516;47.980;8.808;2023-05-16T05:18:19;9.80;99.90
6954;DHT22;3516;47.980;8.808;2023-05-16T05:20:46;9.90;99.90
6954;DHT22;3516;47.980;8.808;2023-05-16T05:23:13;9.90;99.90
6954;DHT22;3516;47.980;8.808;2023-05-16T05:25:41;9.90;99.90
6954;DHT22;3516;47.980;8.808;2023-05-16T05:28:08;9.90;99.90
6954;DHT22;3516;47.980;8.808;2023-05-16T05:30:34;10.00;99.90
6954;DHT22;3516;47.980;8.808;2023-05-16T05:33:01;10.00;99.90
6954;DHT22;3516;47.980;8.808;2023-05-16T05:35:28;10.00;99.90
6954;DHT22;3516;47.980;8.808;2023-05-16T05:37:54;10.00;99.90
6954;DHT22;3516;47.980;8.808;2023-05-16T05:40:21;10.10;99.90
6954;DHT22;3516;47.980;8.808;2023-05-16T05:42:49;10.10;99.90
6954;DHT22;3516;47.980;8.808;2023-05-16T05:45:16;10.10;99.90
6954;DHT22;3516;47.980;8.808;2023-05-16T05:47:43;10.20;99.90
6954;DHT22;3516;47.980;8.808;2023-05-16T05:50:10;10.20;99.90
6954;DHT22;3516;47.980;8.808;2023-05-16T05:52:37;10.20;99.90
6954;DHT22;3516;47.980;8.808;2023-05-16T05:55:04;10.10;99.90
6954;DHT22;3516;47.980;8.808;2023-05-16T05:57:31;10.20;99.90
6954;DHT22;3516;47.980;8.808;2023-05-16T05:59:59;10.20;99.90
6954;DHT22;3516;47.980;8.808;2023-05-16T06:02:26;10.10;99.90
6954;DHT22;3516;47.980;8.808;2023-05-16T06:04:53;10.10;99.90
6954;DHT22;3516;47.980;8.808;2023-05-16T06:07:20;10.10;99.90
6954;DHT22;3516;47.980;8.808;2023-05-16T06:09:47;10.20;99.90
6954;DHT22;3516;47.980;8.808;2023-05-16T06:12:13;10.20;99.90
6954;DHT22;3516;47.980;8.808;2023-05-16T06:14:41;10.20;99.90
6954;DHT22;3516;47.980;8.808;2023-05-16T06:17:09;10.10;99.90
6954;DHT22;3516;47.980;8.808;2023-05-16T06:19:36;10.20;99.90
6954;DHT22;3516;47.980;8.808;2023-05-16T06:22:02;10.10;99.90
6954;DHT22;3516;47.980;8.808;2023-05-16T06:24:29;10.20;99.90
6954;DHT22;3516;47.980;8.808;2023-05-16T06:26:56;10.20;99.90
6954;DHT22;3516;47.980;8.808;2023-05-16T06:29:23;10.30;99.90
6954;DHT22;3516;47.980;8.808;2023-05-16T06:31:49;10.30;99.90
6954;DHT22;3516;47.980;8.808;2023-05-16T06:34:17;10.40;99.90
6954;DHT22;3516;47.980;8.808;2023-05-16T06:36:45;10.40;99.90
6954;DHT22;3516;47.980;8.808;2023-05-16T06:39:11;10.40;99.90
6954;DHT22;3516;47.980;8.808;2023-05-16T06:41:38;10.50;99.90
6954;DHT22;3516;47.980;8.808;2023-05-16T06:44:04;10.50;99.90
6954;DHT22;3516;47.980;8.808;2023-05-16T06:46:31;10.60;99.90
6954;DHT22;3516;47.980;8.808;2023-05-16T06:48:58;10.60;99.90
6954;DHT22;3516;47.980;8.808;2023-05-16T06:51:26;10.80;99.90
6954;DHT22;3516;47.980;8.808;2023-05-16T06:53:53;11.00;99.90
6954;DHT22;3516;47.980;8.808;2023-05-16T06:56:20;11.10;99.90
6954;DHT22;3516;47.980;8.808;2023-05-16T06:58:47;11.20;99.90
6954;DHT22;3516;47.980;8.808;2023-05-16T07:01:14;11.40;99.90
6954;DHT22;3516;47.980;8.808;2023-05-16T07:03:40;11.50;99.90
6954;DHT22;3516;47.980;8.808;2023-05-16T07:06:07;11.40;99.90
6954;DHT22;3516;47.980;8.808;2023-05-16T07:08:35;11.50;99.90
6954;DHT22;3516;47.980;8.808;2023-05-16T07:11:02;11.50;99.90
6954;DHT22;3516;47.980;8.808;2023-05-16T07:13:29;11.50;99.90
6954;DHT22;3516;47.980;8.808;2023-05-16T07:15:55;11.50;99.90
6954;DHT22;3516;47.980;8.808;2023-05-16T07:18:22;11.50;99.90
6954;DHT22;3516;47.980;8.808;2023-05-16T07:20:49;11.40;99.90
6954;DHT22;3516;47.980;8.808;2023-05-16T07:23:15;11.30;99.90
6954;DHT22;3516;47.980;8.808;2023-05-16T07:25:43;11.30;99.90
6954;DHT22;3516;47.980;8.808;2023-05-16T07:28:10;11.30;99.90
6954;DHT22;3516;47.980;8.808;2023-05-16T07:30:37;11.40;99.90
6954;DHT22;3516;47.980;8.808;2023-05-16T07:33:04;11.50;99.90
6954;DHT22;3516;47.980;8.808;2023-05-16T07:35:30;11.50;99.90
6954;DHT22;3516;47.980;8.808;2023-05-16T07:37:57;11.60;99.90
6954;DHT22;3516;47.980;8.808;2023-05-16T07:40:24;11.60;99.90
6954;DHT22;3516;47.980;8.808;2023-05-16T07:42:54;11.60;99.90
6954;DHT22;3516;47.980;8.808;2023-05-16T07:45:21;11.60;99.90
6954;DHT22;3516;47.980;8.808;2023-05-16T07:47:48;11.60;99.90
6954;DHT22;3516;47.980;8.808;2023-05-16T07:50:15;11.60;99.90
6954;DHT22;3516;47.980;8.808;2023-05-16T07:52:41;11.80;99.90
6954;DHT22;3516;47.980;8.808;2023-05-16T07:55:08;11.90;99.90
6954;DHT22;3516;47.980;8.808;2023-05-16T07:57:35;12.00;99.90
6954;DHT22;3516;47.980;8.808;2023-05-16T08:00:05;12.10;99.90
6954;DHT22;3516;47.980;8.808;2023-05-16T08:02:32;12.20;99.90
6954;DHT22;3516;47.980;8.808;2023-05-16T08:04:59;12.30;99.90
6954;DHT22;3516;47.980;8.808;2023-05-16T08:07:26;12.30;99.90
6954;DHT22;3516;47.980;8.808;2023-05-16T08:09:52;12.40;99.90
6954;DHT22;3516;47.980;8.808;2023-05-16T08:12:19;12.50;99.90
6954;DHT22;3516;47.980;8.808;2023-05-16T08:14:46;12.50;99.90
6954;DHT22;3516;47.980;8.808;2023-05-16T08:17:14;12.60;99.90
6954;DHT22;3516;47.980;8.808;2023-05-16T08:19:40;12.60;99.90
6954;DHT22;3516;47.980;8.808;2023-05-16T08:22:08;12.70;99.90
6954;DHT22;3516;47.980;8.808;2023-05-16T08:24:35;12.60;99.90
6954;DHT22;3516;47.980;8.808;2023-05-16T08:27:02;12.60;99.90
6954;DHT22;3516;47.980;8.808;2023-05-16T08:29:28;12.50;99.90
6954;DHT22;3516;47.980;8.808;2023-05-16T08:31:56;12.50;99.90
6954;DHT22;3516;47.980;8.808;2023-05-16T08:34:24;12.40;99.90
6954;DHT22;3516;47.980;8.808;2023-05-16T08:36:51;12.40;99.90
6954;DHT22;3516;47.980;8.808;2023-05-16T08:39:18;12.30;99.90
6954;DHT22;3516;47.980;8.808;2023-05-16T08:41:45;12.10;99.90
6954;DHT22;3516;47.980;8.808;2023-05-16T08:44:12;12.00;99.90
6954;DHT22;3516;47.980;8.808;2023-05-16T08:46:49;11.90;99.90
6954;DHT22;3516;47.980;8.808;2023-05-16T08:49:16;11.80;99.90
6954;DHT22;3516;47.980;8.808;2023-05-16T08:51:45;11.70;99.90
6954;DHT22;3516;47.980;8.808;2023-05-16T08:54:13;11.50;99.90
6954;DHT22;3516;47.980;8.808;2023-05-16T08:56:41;11.40;99.90
6954;DHT22;3516;47.980;8.808;2023-05-16T08:59:08;11.30;99.90
6954;DHT22;3516;47.980;8.808;2023-05-16T09:01:36;11.30;99.90
6954;DHT22;3516;47.980;8.808;2023-05-16T09:04:05;11.40;99.90
6954;DHT22;3516;47.980;8.808;2023-05-16T09:06:32;11.30;99.90
6954;DHT22;3516;47.980;8.808;2023-05-16T09:09:00;11.40;99.90
6954;DHT22;3516;47.980;8.808;2023-05-16T09:11:29;11.50;99.90
6954;DHT22;3516;47.980;8.808;2023-05-16T09:13:55;11.50;99.90
6954;DHT22;3516;47.980;8.808;2023-05-16T09:16:22;11.60;99.90
6954;DHT22;3516;47.980;8.808;2023-05-16T09:18:53;11.60;99.90
6954;DHT22;3516;47.980;8.808;2023-05-16T09:21:21;11.60;99.90
6954;DHT22;3516;47.980;8.808;2023-05-16T09:23:48;11.60;99.90
6954;DHT22;3516;47.980;8.808;2023-05-16T09:26:17;11.50;99.90
6954;DHT22;3516;47.980;8.808;2023-05-16T09:28:44;11.40;99.90
6954;DHT22;3516;47.980;8.808;2023-05-16T09:31:21;11.20;99.90
6954;DHT22;3516;47.980;8.808;2023-05-16T09:33:50;11.10;99.90
6954;DHT22;3516;47.980;8.808;2023-05-16T09:36:17;11.00;99.90
6954;DHT22;3516;47.980;8.808;2023-05-16T09:38:44;10.90;99.90
6954;DHT22;3516;47.980;8.808;2023-05-16T09:41:11;10.80;99.90
6954;DHT22;3516;47.980;8.808;2023-05-16T09:43:40;10.80;99.90
6954;DHT22;3516;47.980;8.808;2023-05-16T09:46:07;10.70;99.90
6954;DHT22;3516;47.980;8.808;2023-05-16T09:48:34;10.70;99.90
6954;DHT22;3516;47.980;8.808;2023-05-16T09:51:04;10.70;99.90
6954;DHT22;3516;47.980;8.808;2023-05-16T09:53:31;10.70;99.90
6954;DHT22;3516;47.980;8.808;2023-05-16T09:55:59;10.70;99.90
6954;DHT22;3516;47.980;8.808;2023-05-16T09:58:28;10.70;99.90
6954;DHT22;3516;47.980;8.808;2023-05-16T10:00:57;10.70;99.90
6954;DHT22;3516;47.980;8.808;2023-05-16T10:03:24;10.70;99.90
6954;DHT22;3516;47.980;8.808;2023-05-16T10:05:51;10.70;99.90
6954;DHT22;3516;47.980;8.808;2023-05-16T10:08:20;10.80;99.90
6954;DHT22;3516;47.980;8.808;2023-05-16T10:10:50;10.80;99.90
6954;DHT22;3516;47.980;8.808;2023-05-16T10:13:18;10.80;99.90
6954;DHT22;3516;47.980;8.808;2023-05-16T10:15:47;10.80;99.90
6954;DHT22;3516;47.980;8.808;2023-05-16T10:18:16;10.80;99.90
6954;DHT22;3516;47.980;8.808;2023-05-16T10:20:45;10.80;99.90
6954;DHT22;3516;47.980;8.808;2023-05-16T10:23:16;10.90;99.90
6954;DHT22;3516;47.980;8.808;2023-05-16T10:25:44;10.90;99.90
6954;DHT22;3516;47.980;8.808;2023-05-16T10:28:12;10.90;99.90
6954;DHT22;3516;47.980;8.808;2023-05-16T10:30:40;10.90;99.90
6954;DHT22;3516;47.980;8.808;2023-05-16T10:33:10;10.90;99.90
6954;DHT22;3516;47.980;8.808;2023-05-16T10:35:39;11.00;99.90
6954;DHT22;3516;47.980;8.808;2023-05-16T10:38:07;11.10;99.90
6954;DHT22;3516;47.980;8.808;2023-05-16T10:40:35;11.10;99.90
6954;DHT22;3516;47.980;8.808;2023-05-16T10:43:03;11.10;99.90
6954;DHT22;3516;47.980;8.808;2023-05-16T10:45:30;11.00;99.90
6954;DHT22;3516;47.980;8.808;2023-05-16T10:47:59;11.00;99.90
6954;DHT22;3516;47.980;8.808;2023-05-16T10:50:33;10.90;99.90
6954;DHT22;3516;47.980;8.808;2023-05-16T10:53:17;10.80;99.90
6954;DHT22;3516;47.980;8.808;2023-05-16T10:55:47;10.80;99.90
6954;DHT22;3516;47.980;8.808;2023-05-16T10:58:18;10.80;99.90
6954;DHT22;3516;47.980;8.808;2023-05-16T11:00:48;10.80;99.90
6954;DHT22;3516;47.980;8.808;2023-05-16T11:03:21;10.80;99.90
6954;DHT22;3516;47.980;8.808;2023-05-16T11:05:51;10.80;99.90
6954;DHT22;3516;47.980;8.808;2023-05-16T11:08:19;10.90;99.90
6954;DHT22;3516;47.980;8.808;2023-05-16T11:10:46;11.00;99.90
6954;DHT22;3516;47.980;8.808;2023-05-16T11:13:13;11.10;99.90
6954;DHT22;3516;47.980;8.808;2023-05-16T11:15:44;11.30;99.90
6954;DHT22;3516;47.980;8.808;2023-05-16T11:18:14;11.50;99.90
6954;DHT22;3516;47.980;8.808;2023-05-16T11:20:41;11.80;99.90
6954;DHT22;3516;47.980;8.808;2023-05-16T11:23:20;12.10;99.90
6954;DHT22;3516;47.980;8.808;2023-05-16T11:25:48;12.40;99.90
6954;DHT22;3516;47.980;8.808;2023-05-16T11:28:17;12.40;99.90
6954;DHT22;3516;47.980;8.808;2023-05-16T11:30:46;12.40;99.90
6954;DHT22;3516;47.980;8.808;2023-05-16T11:33:12;12.30;99.90
6954;DHT22;3516;47.980;8.808;2023-05-16T11:35:40;12.20;99.90
6954;DHT22;3516;47.980;8.808;2023-05-16T11:38:11;12.30;99.90
6954;DHT22;3516;47.980;8.808;2023-05-16T11:40:42;12.30;99.90
6954;DHT22;3516;47.980;8.808;2023-05-16T11:43:10;12.30;99.90
6954;DHT22;3516;47.980;8.808;2023-05-16T11:45:37;12.40;99.90
6954;DHT22;3516;47.980;8.808;2023-05-16T11:48:04;12.50;99.90
6954;DHT22;3516;47.980;8.808;2023-05-16T11:50:33;12.70;99.90
6954;DHT22;3516;47.980;8.808;2023-05-16T11:53:00;12.70;99.90
6954;DHT22;3516;47.980;8.808;2023-05-16T11:55:28;12.70;99.90
6954;DHT22;3516;47.980;8.808;2023-05-16T11:57:57;12.60;99.90
6954;DHT22;3516;47.980;8.808;2023-05-16T12:00:25;12.80;99.90
6954;DHT22;3516;47.980;8.808;2023-05-16T12:03:00;13.00;99.90
6954;DHT22;3516;47.980;8.808;2023-05-16T12:05:27;13.30;99.90
6954;DHT22;3516;47.980;8.808;2023-05-16T12:07:55;13.60;99.90
6954;DHT22;3516;47.980;8.808;2023-05-16T12:10:22;13.80;99.90
6954;DHT22;3516;47.980;8.808;2023-05-16T12:12:50;13.80;99.90
6954;DHT22;3516;47.980;8.808;2023-05-16T12:15:19;13.80;99.90
6954;DHT22;3516;47.980;8.808;2023-05-16T12:17:46;13.70;99.90
6954;DHT22;3516;47.980;8.808;2023-05-16T12:20:14;13.40;99.90
6954;DHT22;3516;47.980;8.808;2023-05-16T12:22:42;13.20;99.90
6954;DHT22;3516;47.980;8.808;2023-05-16T12:25:24;13.00;99.90
6954;DHT22;3516;47.980;8.808;2023-05-16T12:27:52;12.90;99.90
6954;DHT22;3516;47.980;8.808;2023-05-16T12:30:21;12.80;99.90
6954;DHT22;3516;47.980;8.808;2023-05-16T12:32:52;12.70;99.90
6954;DHT22;3516;47.980;8.808;2023-05-16T12:35:19;12.60;99.90
6954;DHT22;3516;47.980;8.808;2023-05-16T12:37:46;12.40;99.90
6954;DHT22;3516;47.980;8.808;2023-05-16T12:40:12;12.30;99.90
6954;DHT22;3516;47.980;8.808;2023-05-16T12:42:42;12.10;99.90
6954;DHT22;3516;47.980;8.808;2023-05-16T12:45:14;12.00;99.90
6954;DHT22;3516;47.980;8.808;2023-05-16T12:47:42;11.90;99.90
6954;DHT22;3516;47.980;8.808;2023-05-16T12:50:10;11.70;99.90
6954;DHT22;3516;47.980;8.808;2023-05-16T12:52:46;11.60;99.90
6954;DHT22;3516;47.980;8.808;2023-05-16T12:55:13;11.60;99.90
6954;DHT22;3516;47.980;8.808;2023-05-16T12:57:41;11.50;99.90
6954;DHT22;3516;47.980;8.808;2023-05-16T13:00:09;11.40;99.90
6954;DHT22;3516;47.980;8.808;2023-05-16T13:02:37;11.30;99.90
6954;DHT22;3516;47.980;8.808;2023-05-16T13:05:06;11.20;99.90
6954;DHT22;3516;47.980;8.808;2023-05-16T13:07:33;11.20;99.90
6954;DHT22;3516;47.980;8.808;2023-05-16T13:09:59;11.20;99.90
6954;DHT22;3516;47.980;8.808;2023-05-16T13:12:27;11.20;99.90
6954;DHT22;3516;47.980;8.808;2023-05-16T13:14:53;11.20;99.90
6954;DHT22;3516;47.980;8.808;2023-05-16T13:17:20;11.20;99.90
6954;DHT22;3516;47.980;8.808;2023-05-16T13:19:48;11.30;99.90
6954;DHT22;3516;47.980;8.808;2023-05-16T13:22:17;11.30;99.90
6954;DHT22;3516;47.980;8.808;2023-05-16T13:24:43;11.30;99.90
6954;DHT22;3516;47.980;8.808;2023-05-16T13:27:10;11.30;99.90
6954;DHT22;3516;47.980;8.808;2023-05-16T13:29:37;11.30;99.90
6954;DHT22;3516;47.980;8.808;2023-05-16T13:32:04;11.40;99.90
6954;DHT22;3516;47.980;8.808;2023-05-16T13:34:32;11.40;99.90
6954;DHT22;3516;47.980;8.808;2023-05-16T13:36:59;11.40;99.90
6954;DHT22;3516;47.980;8.808;2023-05-16T13:39:27;11.50;99.90
6954;DHT22;3516;47.980;8.808;2023-05-16T13:41:53;11.50;99.90
6954;DHT22;3516;47.980;8.808;2023-05-16T13:44:20;11.50;99.90
6954;DHT22;3516;47.980;8.808;2023-05-16T13:46:47;11.40;99.90
6954;DHT22;3516;47.980;8.808;2023-05-16T13:49:14;11.40;99.90
6954;DHT22;3516;47.980;8.808;2023-05-16T13:51:41;11.50;99.90
6954;DHT22;3516;47.980;8.808;2023-05-16T13:54:08;11.50;99.90
6954;DHT22;3516;47.980;8.808;2023-05-16T13:56:36;11.60;99.90
6954;DHT22;3516;47.980;8.808;2023-05-16T13:59:03;11.70;99.90
6954;DHT22;3516;47.980;8.808;2023-05-16T14:01:29;11.70;99.90
6954;DHT22;3516;47.980;8.808;2023-05-16T14:03:56;11.80;99.90
6954;DHT22;3516;47.980;8.808;2023-05-16T14:06:23;11.80;99.90
6954;DHT22;3516;47.980;8.808;2023-05-16T14:08:49;11.60;99.90
6954;DHT22;3516;47.980;8.808;2023-05-16T14:11:16;11.60;99.90
6954;DHT22;3516;47.980;8.808;2023-05-16T14:13:45;11.40;99.90
6954;DHT22;3516;47.980;8.808;2023-05-16T14:16:12;11.40;99.90
6954;DHT22;3516;47.980;8.808;2023-05-16T14:18:39;11.20;99.90
6954;DHT22;3516;47.980;8.808;2023-05-16T14:21:06;11.30;99.90
6954;DHT22;3516;47.980;8.808;2023-05-16T14:23:33;11.30;99.90
6954;DHT22;3516;47.980;8.808;2023-05-16T14:25:59;11.40;99.90
6954;DHT22;3516;47.980;8.808;2023-05-16T14:28:27;11.30;99.90
6954;DHT22;3516;47.980;8.808;2023-05-16T14:30:55;11.30;99.90
6954;DHT22;3516;47.980;8.808;2023-05-16T14:33:21;11.30;99.90
6954;DHT22;3516;47.980;8.808;2023-05-16T14:35:48;11.10;99.90
6954;DHT22;3516;47.980;8.808;2023-05-16T14:38:15;10.90;99.90
6954;DHT22;3516;47.980;8.808;2023-05-16T14:40:41;10.80;99.90
6954;DHT22;3516;47.980;8.808;2023-05-16T14:43:08;10.70;99.90
6954;DHT22;3516;47.980;8.808;2023-05-16T14:45:36;10.70;99.90
6954;DHT22;3516;47.980;8.808;2023-05-16T14:48:05;10.60;99.90
6954;DHT22;3516;47.980;8.808;2023-05-16T14:50:32;10.50;99.90
6954;DHT22;3516;47.980;8.808;2023-05-16T14:52:59;10.40;99.90
6954;DHT22;3516;47.980;8.808;2023-05-16T14:55:26;10.40;99.90
6954;DHT22;3516;47.980;8.808;2023-05-16T14:57:53;10.30;99.90
6954;DHT22;3516;47.980;8.808;2023-05-16T15:00:22;10.20;99.90
6954;DHT22;3516;47.980;8.808;2023-05-16T15:02:50;10.20;99.90
6954;DHT22;3516;47.980;8.808;2023-05-16T15:05:18;10.20;99.90
6954;DHT22;3516;47.980;8.808;2023-05-16T15:07:44;10.30;99.90
6954;DHT22;3516;47.980;8.808;2023-05-16T15:10:11;10.30;99.90
6954;DHT22;3516;47.980;8.808;2023-05-16T15:12:38;10.30;99.90
6954;DHT22;3516;47.980;8.808;2023-05-16T15:15:08;10.30;99.90
6954;DHT22;3516;47.980;8.808;2023-05-16T15:17:35;10.30;99.90
6954;DHT22;3516;47.980;8.808;2023-05-16T15:20:03;10.30;99.90
6954;DHT22;3516;47.980;8.808;2023-05-16T15:22:32;10.20;99.90
6954;DHT22;3516;47.980;8.808;2023-05-16T15:24:59;10.20;99.90
6954;DHT22;3516;47.980;8.808;2023-05-16T15:27:25;10.20;99.90
6954;DHT22;3516;47.980;8.808;2023-05-16T15:29:52;10.20;99.90
6954;DHT22;3516;47.980;8.808;2023-05-16T15:32:19;10.20;99.90
6954;DHT22;3516;47.980;8.808;2023-05-16T15:34:47;10.10;99.90
6954;DHT22;3516;47.980;8.808;2023-05-16T15:37:15;10.10;99.90
6954;DHT22;3516;47.980;8.808;2023-05-16T15:39:43;10.10;99.90
6954;DHT22;3516;47.980;8.808;2023-05-16T15:42:10;10.10;99.90
6954;DHT22;3516;47.980;8.808;2023-05-16T15:44:38;10.20;99.90
6954;DHT22;3516;47.980;8.808;2023-05-16T15:47:06;10.30;99.90
6954;DHT22;3516;47.980;8.808;2023-05-16T15:49:33;10.20;99.90
6954;DHT22;3516;47.980;8.808;2023-05-16T15:52:00;10.10;99.90
6954;DHT22;3516;47.980;8.808;2023-05-16T15:54:28;10.10;99.90
6954;DHT22;3516;47.980;8.808;2023-05-16T15:56:56;10.00;99.90
6954;DHT22;3516;47.980;8.808;2023-05-16T15:59:24;9.90;99.90
6954;DHT22;3516;47.980;8.808;2023-05-16T16:01:51;9.80;99.90
6954;DHT22;3516;47.980;8.808;2023-05-16T16:04:20;9.70;99.90
6954;DHT22;3516;47.980;8.808;2023-05-16T16:06:48;9.70;99.90
6954;DHT22;3516;47.980;8.808;2023-05-16T16:09:18;9.70;99.90
6954;DHT22;3516;47.980;8.808;2023-05-16T16:11:45;9.60;99.90
6954;DHT22;3516;47.980;8.808;2023-05-16T16:14:13;9.60;99.90
6954;DHT22;3516;47.980;8.808;2023-05-16T16:16:40;9.50;99.90
6954;DHT22;3516;47.980;8.808;2023-05-16T16:19:06;9.50;99.90
6954;DHT22;3516;47.980;8.808;2023-05-16T16:21:33;9.50;99.90
6954;DHT22;3516;47.980;8.808;2023-05-16T16:24:00;9.50;99.90
6954;DHT22;3516;47.980;8.808;2023-05-16T16:26:27;9.50;99.90
6954;DHT22;3516;47.980;8.808;2023-05-16T16:28:53;9.50;99.90
6954;DHT22;3516;47.980;8.808;2023-05-16T16:31:21;9.50;99.90
6954;DHT22;3516;47.980;8.808;2023-05-16T16:33:48;9.50;99.90
6954;DHT22;3516;47.980;8.808;2023-05-16T16:36:15;9.50;99.90
6954;DHT22;3516;47.980;8.808;2023-05-16T16:38:42;9.40;99.90
6954;DHT22;3516;47.980;8.808;2023-05-16T16:41:09;9.40;99.90
6954;DHT22;3516;47.980;8.808;2023-05-16T16:43:37;9.30;99.90
6954;DHT22;3516;47.980;8.808;2023-05-16T16:46:04;9.30;99.90
6954;DHT22;3516;47.980;8.808;2023-05-16T16:48:33;9.20;99.90
6954;DHT22;3516;47.980;8.808;2023-05-16T16:50:59;9.20;99.90
6954;DHT22;3516;47.980;8.808;2023-05-16T16:53:26;9.20;99.90
6954;DHT22;3516;47.980;8.808;2023-05-16T16:55:53;9.20;99.90
6954;DHT22;3516;47.980;8.808;2023-05-16T16:58:20;9.10;99.90
6954;DHT22;3516;47.980;8.808;2023-05-16T17:00:47;9.00;99.90
6954;DHT22;3516;47.980;8.808;2023-05-16T17:03:13;9.00;99.90
6954;DHT22;3516;47.980;8.808;2023-05-16T17:05:42;9.00;99.90
6954;DHT22;3516;47.980;8.808;2023-05-16T17:08:09;9.00;99.90
6954;DHT22;3516;47.980;8.808;2023-05-16T17:10:36;9.00;99.90
6954;DHT22;3516;47.980;8.808;2023-05-16T17:13:03;8.90;99.90
6954;DHT22;3516;47.980;8.808;2023-05-16T17:15:34;8.90;99.90
6954;DHT22;3516;47.980;8.808;2023-05-16T17:18:02;8.80;99.90
6954;DHT22;3516;47.980;8.808;2023-05-16T17:20:31;8.90;99.90
6954;DHT22;3516;47.980;8.808;2023-05-16T17:22:59;8.90;99.90
6954;DHT22;3516;47.980;8.808;2023-05-16T17:25:26;8.90;99.90
6954;DHT22;3516;47.980;8.808;2023-05-16T17:27:53;8.90;99.90
6954;DHT22;3516;47.980;8.808;2023-05-16T17:30:20;8.80;99.90
6954;DHT22;3516;47.980;8.808;2023-05-16T17:32:46;8.80;99.90
6954;DHT22;3516;47.980;8.808;2023-05-16T17:35:13;8.90;99.90
6954;DHT22;3516;47.980;8.808;2023-05-16T17:37:40;8.80;99.90
6954;DHT22;3516;47.980;8.808;2023-05-16T17:40:09;8.80;99.90
6954;DHT22;3516;47.980;8.808;2023-05-16T17:42:41;8.80;99.90
6954;DHT22;3516;47.980;8.808;2023-05-16T17:45:09;8.80;99.90
6954;DHT22;3516;47.980;8.808;2023-05-16T17:47:36;8.70;99.90
6954;DHT22;3516;47.980;8.808;2023-05-16T17:50:05;8.70;99.90
6954;DHT22;3516;47.980;8.808;2023-05-16T17:52:31;8.70;99.90
6954;DHT22;3516;47.980;8.808;2023-05-16T17:54:58;8.70;99.90
6954;DHT22;3516;47.980;8.808;2023-05-16T17:57:26;8.70;99.90
6954;DHT22;3516;47.980;8.808;2023-05-16T17:59:53;8.60;99.90
6954;DHT22;3516;47.980;8.808;2023-05-16T18:02:20;8.70;99.90
6954;DHT22;3516;47.980;8.808;2023-05-16T18:04:46;8.70;99.90
6954;DHT22;3516;47.980;8.808;2023-05-16T18:07:13;8.60;99.90
6954;DHT22;3516;47.980;8.808;2023-05-16T18:09:40;8.60;99.90
6954;DHT22;3516;47.980;8.808;2023-05-16T18:12:07;8.60;99.90
6954;DHT22;3516;47.980;8.808;2023-05-16T18:14:35;8.60;99.90
6954;DHT22;3516;47.980;8.808;2023-05-16T18:17:02;8.50;99.90
6954;DHT22;3516;47.980;8.808;2023-05-16T18:19:29;8.60;99.90
6954;DHT22;3516;47.980;8.808;2023-05-16T18:21:56;8.60;99.90
6954;DHT22;3516;47.980;8.808;2023-05-16T18:24:24;8.50;99.90
6954;DHT22;3516;47.980;8.808;2023-05-16T18:26:51;8.50;99.90
6954;DHT22;3516;47.980;8.808;2023-05-16T18:29:18;8.60;99.90
6954;DHT22;3516;47.980;8.808;2023-05-16T18:31:46;8.40;99.90
6954;DHT22;3516;47.980;8.808;2023-05-16T18:34:13;8.40;99.90
6954;DHT22;3516;47.980;8.808;2023-05-16T18:36:39;8.40;99.90
6954;DHT22;3516;47.980;8.808;2023-05-16T18:39:06;8.40;99.90
6954;DHT22;3516;47.980;8.808;2023-05-16T18:41:34;8.50;99.90
6954;DHT22;3516;47.980;8.808;2023-05-16T18:44:01;8.40;99.90
6954;DHT22;3516;47.980;8.808;2023-05-16T18:46:27;8.40;99.90
6954;DHT22;3516;47.980;8.808;2023-05-16T18:48:55;8.40;99.90
6954;DHT22;3516;47.980;8.808;2023-05-16T18:51:22;8.30;99.90
6954;DHT22;3516;47.980;8.808;2023-05-16T18:53:49;8.40;99.90
6954;DHT22;3516;47.980;8.808;2023-05-16T18:56:16;8.40;99.90
6954;DHT22;3516;47.980;8.808;2023-05-16T18:58:42;8.30;99.90
6954;DHT22;3516;47.980;8.808;2023-05-16T19:01:09;8.40;99.90
6954;DHT22;3516;47.980;8.808;2023-05-16T19:03:36;8.40;99.90
6954;DHT22;3516;47.980;8.808;2023-05-16T19:06:04;8.40;99.90
6954;DHT22;3516;47.980;8.808;2023-05-16T19:08:31;8.40;99.90
6954;DHT22;3516;47.980;8.808;2023-05-16T19:10:57;8.40;99.90
6954;DHT22;3516;47.980;8.808;2023-05-16T19:13:24;8.30;99.90
6954;DHT22;3516;47.980;8.808;2023-05-16T19:15:51;8.30;99.90
6954;DHT22;3516;47.980;8.808;2023-05-16T19:18:17;8.30;99.90
6954;DHT22;3516;47.980;8.808;2023-05-16T19:20:44;8.20;99.90
6954;DHT22;3516;47.980;8.808;2023-05-16T19:23:12;8.20;99.90
6954;DHT22;3516;47.980;8.808;2023-05-16T19:25:39;8.20;99.90
6954;DHT22;3516;47.980;8.808;2023-05-16T19:28:11;8.20;99.90
6954;DHT22;3516;47.980;8.808;2023-05-16T19:30:38;8.10;99.90
6954;DHT22;3516;47.980;8.808;2023-05-16T19:33:05;8.10;99.90
6954;DHT22;3516;47.980;8.808;2023-05-16T19:35:31;8.20;99.90
6954;DHT22;3516;47.980;8.808;2023-05-16T19:37:58;8.10;99.90
6954;DHT22;3516;47.980;8.808;2023-05-16T19:40:26;8.10;99.90
6954;DHT22;3516;47.980;8.808;2023-05-16T19:42:54;8.10;99.90
6954;DHT22;3516;47.980;8.808;2023-05-16T19:45:20;8.10;99.90
6954;DHT22;3516;47.980;8.808;2023-05-16T19:47:47;8.10;99.90
6954;DHT22;3516;47.980;8.808;2023-05-16T19:50:14;8.00;99.90
6954;DHT22;3516;47.980;8.808;2023-05-16T19:52:41;8.00;99.90
6954;DHT22;3516;47.980;8.808;2023-05-16T19:55:08;8.00;99.90
6954;DHT22;3516;47.980;8.808;2023-05-16T19:57:36;7.90;99.90
6954;DHT22;3516;47.980;8.808;2023-05-16T20:00:03;7.90;99.90
6954;DHT22;3516;47.980;8.808;2023-05-16T20:02:30;7.80;99.90
6954;DHT22;3516;47.980;8.808;2023-05-16T20:04:57;7.80;99.90
6954;DHT22;3516;47.980;8.808;2023-05-16T20:07:24;7.70;99.90